NKS1ND KHOU-KMIA
Flight info
| Callsign | NKS1ND |
|---|---|
| Flight time | 1h 45m |
| Altitude | 39000 |
| Route | ELOCO6 LLA LEV Y290 GAWKS FROGZ5 |
| Aircraft | B737/M-SDE2E3FGHIRWXY/LB1 |
Departure
| Time | 2026-05-05 15:25 |
|---|---|
| Airport | William P. Hobby Airport (KHOU) |
Arrival
| Time | 2026-05-05 17:10 |
|---|---|
| Airport | Miami International Airport (KMIA) |
| Time | Latitude | Longitude | Altitude | Speed | Heading |
|---|---|---|---|---|---|
| 2026-05-05 15:15 | 29.65361 | -95.27801 | 51 ft | 0 kts | 249° |
| 2026-05-05 15:17 | 29.65356 | -95.27816 | 48 ft | 5 kts | 249° |
| 2026-05-05 15:17 | 29.65342 | -95.27855 | 48 ft | 5 kts | 248° |
| 2026-05-05 15:18 | 29.65329 | -95.27895 | 51 ft | 5 kts | 248° |
| 2026-05-05 15:18 | 29.65315 | -95.27933 | 51 ft | 5 kts | 247° |
| 2026-05-05 15:18 | 29.65301 | -95.27970 | 51 ft | 5 kts | 245° |
| 2026-05-05 15:18 | 29.65290 | -95.28008 | 51 ft | 5 kts | 264° |
| 2026-05-05 15:19 | 29.65302 | -95.28044 | 48 ft | 5 kts | 300° |
| 2026-05-05 15:19 | 29.65317 | -95.28079 | 51 ft | 5 kts | 289° |
| 2026-05-05 15:19 | 29.65320 | -95.28116 | 51 ft | 5 kts | 263° |
| 2026-05-05 15:19 | 29.65314 | -95.28153 | 51 ft | 5 kts | 266° |
| 2026-05-05 15:20 | 29.65314 | -95.28190 | 51 ft | 5 kts | 271° |
| 2026-05-05 15:20 | 29.65315 | -95.28227 | 51 ft | 5 kts | 269° |
| 2026-05-05 15:20 | 29.65312 | -95.28262 | 47 ft | 4 kts | 259° |
| 2026-05-05 15:20 | 29.65304 | -95.28298 | 51 ft | 5 kts | 253° |
| 2026-05-05 15:21 | 29.65285 | -95.28339 | 51 ft | 6 kts | 233° |
| 2026-05-05 15:21 | 29.65257 | -95.28375 | 50 ft | 6 kts | 228° |
| 2026-05-05 15:21 | 29.65234 | -95.28413 | 49 ft | 6 kts | 239° |
| 2026-05-05 15:21 | 29.65225 | -95.28458 | 49 ft | 6 kts | 267° |
| 2026-05-05 15:22 | 29.65224 | -95.28504 | 51 ft | 6 kts | 268° |
| 2026-05-05 15:22 | 29.65214 | -95.28546 | 51 ft | 6 kts | 232° |
| 2026-05-05 15:22 | 29.65180 | -95.28564 | 51 ft | 6 kts | 199° |
| 2026-05-05 15:22 | 29.65143 | -95.28570 | 51 ft | 5 kts | 173° |
| 2026-05-05 15:23 | 29.65108 | -95.28559 | 51 ft | 5 kts | 160° |
| 2026-05-05 15:23 | 29.65079 | -95.28537 | 47 ft | 5 kts | 142° |
| 2026-05-05 15:23 | 29.65053 | -95.28510 | 51 ft | 5 kts | 135° |
| 2026-05-05 15:23 | 29.65029 | -95.28482 | 51 ft | 5 kts | 135° |
| 2026-05-05 15:24 | 29.65006 | -95.28454 | 51 ft | 5 kts | 131° |
| 2026-05-05 15:24 | 29.64984 | -95.28425 | 49 ft | 5 kts | 131° |
| 2026-05-05 15:24 | 29.64859 | -95.28273 | 51 ft | 64 kts | 134° |
| 2026-05-05 15:24 | 29.64313 | -95.27642 | 67 ft | 154 kts | 137° |
| 2026-05-05 15:25 | 29.63476 | -95.26595 | 641 ft | 198 kts | 135° |
| 2026-05-05 15:25 | 29.62541 | -95.25375 | 982 ft | 213 kts | 136° |
| 2026-05-05 15:25 | 29.61548 | -95.24167 | 1935 ft | 199 kts | 139° |
| 2026-05-05 15:25 | 29.60584 | -95.22967 | 2694 ft | 218 kts | 132° |
| 2026-05-05 15:26 | 29.59998 | -95.21228 | 3196 ft | 248 kts | 102° |
| 2026-05-05 15:26 | 29.59846 | -95.19216 | 3929 ft | 257 kts | 98° |
| 2026-05-05 15:26 | 29.59823 | -95.17148 | 4657 ft | 260 kts | 93° |
| 2026-05-05 15:26 | 29.59890 | -95.15050 | 5261 ft | 268 kts | 91° |
| 2026-05-05 15:27 | 29.59816 | -95.12832 | 5648 ft | 285 kts | 100° |
| 2026-05-05 15:27 | 29.59554 | -95.10542 | 6300 ft | 293 kts | 100° |
| 2026-05-05 15:27 | 29.59292 | -95.08193 | 7011 ft | 299 kts | 99° |
| 2026-05-05 15:27 | 29.59053 | -95.05808 | 7858 ft | 302 kts | 98° |
| 2026-05-05 15:28 | 29.58825 | -95.03392 | 8770 ft | 306 kts | 97° |
| 2026-05-05 15:28 | 29.58914 | -95.00941 | 9608 ft | 311 kts | 75° |
| 2026-05-05 15:28 | 29.59547 | -94.98552 | 10432 ft | 316 kts | 70° |
| 2026-05-05 15:28 | 29.60263 | -94.96070 | 10729 ft | 341 kts | 70° |
| 2026-05-05 15:29 | 29.61028 | -94.93413 | 11159 ft | 357 kts | 70° |
| 2026-05-05 15:29 | 29.61797 | -94.90676 | 11869 ft | 363 kts | 70° |
| 2026-05-05 15:29 | 29.62564 | -94.87897 | 12649 ft | 367 kts | 69° |
| 2026-05-05 15:29 | 29.63337 | -94.85078 | 13437 ft | 372 kts | 69° |
| 2026-05-05 15:30 | 29.64192 | -94.82261 | 14148 ft | 375 kts | 65° |
| 2026-05-05 15:30 | 29.65184 | -94.79457 | 14796 ft | 381 kts | 63° |
| 2026-05-05 15:30 | 29.66233 | -94.76627 | 15431 ft | 389 kts | 63° |
| 2026-05-05 15:30 | 29.67303 | -94.73740 | 15934 ft | 394 kts | 63° |
| 2026-05-05 15:31 | 29.68364 | -94.70838 | 16002 ft | 394 kts | 64° |
| 2026-05-05 15:31 | 29.69417 | -94.67923 | 16025 ft | 396 kts | 64° |
| 2026-05-05 15:31 | 29.70469 | -94.64991 | 16028 ft | 396 kts | 64° |
| 2026-05-05 15:31 | 29.71517 | -94.62061 | 16031 ft | 396 kts | 64° |
| 2026-05-05 15:32 | 29.72565 | -94.59131 | 16032 ft | 396 kts | 64° |
| 2026-05-05 15:32 | 29.73521 | -94.56147 | 16117 ft | 404 kts | 72° |
| 2026-05-05 15:32 | 29.74013 | -94.52936 | 16800 ft | 411 kts | 83° |
| 2026-05-05 15:32 | 29.74042 | -94.49629 | 17550 ft | 416 kts | 95° |
| 2026-05-05 15:33 | 29.73672 | -94.46310 | 18251 ft | 421 kts | 99° |
| 2026-05-05 15:33 | 29.73202 | -94.42954 | 18793 ft | 428 kts | 99° |
| 2026-05-05 15:33 | 29.72741 | -94.39591 | 19354 ft | 434 kts | 98° |
| 2026-05-05 15:33 | 29.72303 | -94.36136 | 19929 ft | 440 kts | 97° |
| 2026-05-05 15:34 | 29.71882 | -94.32627 | 20501 ft | 445 kts | 97° |
| 2026-05-05 15:34 | 29.71484 | -94.29074 | 21072 ft | 451 kts | 96° |
| 2026-05-05 15:34 | 29.71091 | -94.25471 | 21632 ft | 457 kts | 96° |
| 2026-05-05 15:34 | 29.70693 | -94.21828 | 22175 ft | 462 kts | 96° |
| 2026-05-05 15:35 | 29.70285 | -94.18133 | 22708 ft | 468 kts | 96° |
| 2026-05-05 15:35 | 29.69869 | -94.14403 | 23234 ft | 473 kts | 96° |
| 2026-05-05 15:35 | 29.69445 | -94.10632 | 23709 ft | 479 kts | 96° |
| 2026-05-05 15:35 | 29.69015 | -94.06822 | 24168 ft | 482 kts | 96° |
| 2026-05-05 15:36 | 29.68628 | -94.02985 | 24668 ft | 484 kts | 91° |
| 2026-05-05 15:36 | 29.68523 | -93.99114 | 25163 ft | 486 kts | 88° |
| 2026-05-05 15:36 | 29.68494 | -93.95214 | 25642 ft | 489 kts | 88° |
| 2026-05-05 15:36 | 29.68490 | -93.91284 | 26107 ft | 493 kts | 87° |
| 2026-05-05 15:37 | 29.68488 | -93.87337 | 26559 ft | 496 kts | 87° |
| 2026-05-05 15:37 | 29.68476 | -93.83350 | 27004 ft | 499 kts | 88° |
| 2026-05-05 15:37 | 29.68452 | -93.79353 | 27437 ft | 503 kts | 88° |
| 2026-05-05 15:37 | 29.68419 | -93.75308 | 27867 ft | 506 kts | 88° |
| 2026-05-05 15:38 | 29.68379 | -93.71255 | 28283 ft | 509 kts | 88° |
| 2026-05-05 15:38 | 29.68335 | -93.67163 | 28690 ft | 513 kts | 88° |
| 2026-05-05 15:38 | 29.68288 | -93.63056 | 29092 ft | 516 kts | 88° |
| 2026-05-05 15:38 | 29.68240 | -93.58908 | 29478 ft | 519 kts | 88° |
| 2026-05-05 15:39 | 29.68191 | -93.54759 | 29855 ft | 522 kts | 88° |
| 2026-05-05 15:39 | 29.68140 | -93.50567 | 30196 ft | 525 kts | 88° |
| 2026-05-05 15:39 | 29.68089 | -93.46362 | 30514 ft | 528 kts | 88° |
| 2026-05-05 15:39 | 29.68036 | -93.42130 | 30850 ft | 530 kts | 88° |
| 2026-05-05 15:40 | 29.67981 | -93.37891 | 31182 ft | 531 kts | 88° |
| 2026-05-05 15:40 | 29.67926 | -93.33629 | 31497 ft | 533 kts | 88° |
| 2026-05-05 15:40 | 29.67868 | -93.29367 | 31800 ft | 536 kts | 88° |
| 2026-05-05 15:40 | 29.67809 | -93.25074 | 32110 ft | 537 kts | 88° |
| 2026-05-05 15:41 | 29.67749 | -93.20773 | 32503 ft | 537 kts | 88° |
| 2026-05-05 15:41 | 29.67686 | -93.16496 | 32964 ft | 535 kts | 88° |
| 2026-05-05 15:41 | 29.67622 | -93.12231 | 33450 ft | 532 kts | 88° |
| 2026-05-05 15:41 | 29.67558 | -93.07990 | 33936 ft | 529 kts | 88° |
| 2026-05-05 15:42 | 29.67492 | -93.03763 | 34312 ft | 528 kts | 88° |
| 2026-05-05 15:42 | 29.67427 | -92.99551 | 34631 ft | 527 kts | 88° |
| 2026-05-05 15:42 | 29.67360 | -92.95336 | 34918 ft | 528 kts | 88° |
| 2026-05-05 15:42 | 29.67291 | -92.91105 | 35194 ft | 528 kts | 88° |
| 2026-05-05 15:43 | 29.67222 | -92.86888 | 35498 ft | 528 kts | 88° |
| 2026-05-05 15:43 | 29.67150 | -92.82669 | 35815 ft | 527 kts | 88° |
| 2026-05-05 15:43 | 29.67077 | -92.78459 | 36099 ft | 527 kts | 88° |
| 2026-05-05 15:43 | 29.67003 | -92.74243 | 36350 ft | 527 kts | 89° |
| 2026-05-05 15:44 | 29.66928 | -92.70038 | 36610 ft | 527 kts | 89° |
| 2026-05-05 15:44 | 29.66852 | -92.65820 | 36900 ft | 527 kts | 89° |
| 2026-05-05 15:44 | 29.66774 | -92.61620 | 37175 ft | 526 kts | 89° |
| 2026-05-05 15:44 | 29.66694 | -92.57402 | 37418 ft | 527 kts | 89° |
| 2026-05-05 15:45 | 29.66614 | -92.53191 | 37645 ft | 527 kts | 89° |
| 2026-05-05 15:45 | 29.66532 | -92.48981 | 37891 ft | 527 kts | 89° |
| 2026-05-05 15:45 | 29.66449 | -92.44772 | 38162 ft | 526 kts | 89° |
| 2026-05-05 15:45 | 29.66365 | -92.40569 | 38439 ft | 525 kts | 89° |
| 2026-05-05 15:46 | 29.66124 | -92.36381 | 38674 ft | 526 kts | 97° |
| 2026-05-05 15:46 | 29.65435 | -92.32304 | 38813 ft | 527 kts | 103° |
| 2026-05-05 15:46 | 29.64581 | -92.28195 | 38919 ft | 530 kts | 104° |
| 2026-05-05 15:47 | 29.62764 | -92.19933 | 38969 ft | 537 kts | 104° |
| 2026-05-05 15:47 | 29.60954 | -92.11547 | 38987 ft | 544 kts | 103° |
| 2026-05-05 15:48 | 29.59475 | -92.04498 | 38976 ft | 548 kts | 103° |
| 2026-05-05 15:48 | 29.57698 | -91.95945 | 38982 ft | 552 kts | 103° |
| 2026-05-05 15:49 | 29.55911 | -91.87373 | 38974 ft | 551 kts | 103° |
| 2026-05-05 15:49 | 29.54120 | -91.78835 | 38969 ft | 550 kts | 103° |
| 2026-05-05 15:50 | 29.52321 | -91.70303 | 38980 ft | 549 kts | 103° |
| 2026-05-05 15:50 | 29.50519 | -91.61781 | 38982 ft | 549 kts | 103° |
| 2026-05-05 15:51 | 29.48710 | -91.53255 | 38989 ft | 550 kts | 103° |
| 2026-05-05 15:51 | 29.46895 | -91.44729 | 38993 ft | 550 kts | 103° |
| 2026-05-05 15:52 | 29.45073 | -91.36198 | 38998 ft | 551 kts | 103° |
| 2026-05-05 15:52 | 29.43244 | -91.27660 | 39001 ft | 551 kts | 103° |
| 2026-05-05 15:53 | 29.41406 | -91.19113 | 38995 ft | 552 kts | 103° |
| 2026-05-05 15:53 | 29.39561 | -91.10560 | 38999 ft | 553 kts | 103° |
| 2026-05-05 15:54 | 29.37709 | -91.02004 | 38989 ft | 554 kts | 103° |
| 2026-05-05 15:54 | 29.35847 | -90.93429 | 38999 ft | 554 kts | 103° |
| 2026-05-05 15:55 | 29.33977 | -90.84849 | 39005 ft | 555 kts | 103° |
| 2026-05-05 15:55 | 29.32100 | -90.76259 | 39014 ft | 556 kts | 103° |
| 2026-05-05 15:56 | 29.30228 | -90.67722 | 39010 ft | 556 kts | 103° |
| 2026-05-05 15:56 | 29.28335 | -90.59123 | 39004 ft | 557 kts | 103° |
| 2026-05-05 15:57 | 29.26438 | -90.50529 | 39008 ft | 557 kts | 103° |
| 2026-05-05 15:57 | 29.24534 | -90.41932 | 39018 ft | 557 kts | 103° |
| 2026-05-05 15:58 | 29.22626 | -90.33343 | 39024 ft | 557 kts | 103° |
| 2026-05-05 15:58 | 29.20712 | -90.24756 | 39026 ft | 557 kts | 103° |
| 2026-05-05 15:59 | 29.18794 | -90.16172 | 39013 ft | 556 kts | 103° |
| 2026-05-05 15:59 | 29.16625 | -90.07687 | 39007 ft | 555 kts | 112° |
| 2026-05-05 16:00 | 29.13606 | -89.99568 | 39018 ft | 555 kts | 114° |
| 2026-05-05 16:00 | 29.10483 | -89.91508 | 39024 ft | 554 kts | 114° |
| 2026-05-05 16:01 | 29.07402 | -89.83436 | 39032 ft | 554 kts | 114° |
| 2026-05-05 16:01 | 29.04360 | -89.75352 | 39029 ft | 554 kts | 114° |
| 2026-05-05 16:02 | 29.01327 | -89.67272 | 39034 ft | 553 kts | 114° |
| 2026-05-05 16:02 | 28.98280 | -89.59184 | 39027 ft | 553 kts | 114° |
| 2026-05-05 16:03 | 28.95237 | -89.51136 | 39039 ft | 553 kts | 114° |
| 2026-05-05 16:03 | 28.92178 | -89.43067 | 39045 ft | 553 kts | 114° |
| 2026-05-05 16:04 | 28.89120 | -89.35016 | 39036 ft | 553 kts | 114° |
| 2026-05-05 16:04 | 28.86058 | -89.26971 | 39038 ft | 553 kts | 114° |
| 2026-05-05 16:05 | 28.82990 | -89.18929 | 39037 ft | 553 kts | 114° |
| 2026-05-05 16:05 | 28.79919 | -89.10895 | 39046 ft | 553 kts | 114° |
| 2026-05-05 16:06 | 28.76841 | -89.02859 | 39049 ft | 553 kts | 114° |
| 2026-05-05 16:06 | 28.73780 | -88.94887 | 39048 ft | 553 kts | 114° |
| 2026-05-05 16:07 | 28.70695 | -88.86866 | 39042 ft | 552 kts | 114° |
| 2026-05-05 16:07 | 28.67608 | -88.78860 | 39052 ft | 552 kts | 114° |
| 2026-05-05 16:08 | 28.64517 | -88.70857 | 39052 ft | 552 kts | 114° |
| 2026-05-05 16:08 | 28.61424 | -88.62869 | 39050 ft | 551 kts | 114° |
| 2026-05-05 16:09 | 28.58327 | -88.54886 | 39051 ft | 551 kts | 114° |
| 2026-05-05 16:09 | 28.55228 | -88.46916 | 39056 ft | 551 kts | 114° |
| 2026-05-05 16:10 | 28.52124 | -88.38947 | 39055 ft | 551 kts | 114° |
| 2026-05-05 16:10 | 28.49019 | -88.30993 | 39057 ft | 550 kts | 114° |
| 2026-05-05 16:11 | 28.45911 | -88.23049 | 39059 ft | 550 kts | 114° |
| 2026-05-05 16:12 | 28.39689 | -88.07188 | 39061 ft | 549 kts | 114° |
| 2026-05-05 16:13 | 28.33350 | -87.86827 | 39060 ft | 547 kts | 106° |
| 2026-05-05 16:13 | 28.31050 | -87.78604 | 39071 ft | 547 kts | 106° |
| 2026-05-05 16:14 | 28.26306 | -87.62219 | 39068 ft | 546 kts | 107° |
| 2026-05-05 16:15 | 28.21536 | -87.45876 | 39067 ft | 546 kts | 107° |
| 2026-05-05 16:16 | 28.16776 | -87.29618 | 39070 ft | 545 kts | 107° |
| 2026-05-05 16:17 | 28.13185 | -87.17409 | 39062 ft | 544 kts | 107° |
| 2026-05-05 16:18 | 28.09586 | -87.05218 | 39062 ft | 544 kts | 107° |
| 2026-05-05 16:19 | 28.05981 | -86.93049 | 39066 ft | 543 kts | 107° |
| 2026-05-05 16:19 | 28.02371 | -86.80901 | 39069 ft | 543 kts | 107° |
| 2026-05-05 16:20 | 27.97620 | -86.64687 | 39070 ft | 543 kts | 107° |
| 2026-05-05 16:22 | 27.91759 | -86.44414 | 39058 ft | 543 kts | 107° |
| 2026-05-05 16:23 | 27.87031 | -86.28219 | 39064 ft | 542 kts | 107° |
| 2026-05-05 16:23 | 27.83473 | -86.16083 | 38961 ft | 542 kts | 106° |
| 2026-05-05 16:24 | 27.81114 | -86.08056 | 39048 ft | 542 kts | 106° |
| 2026-05-05 16:25 | 27.77523 | -85.95875 | 39070 ft | 544 kts | 106° |
| 2026-05-05 16:25 | 27.73936 | -85.83754 | 39069 ft | 545 kts | 106° |
| 2026-05-05 16:26 | 27.69113 | -85.67526 | 39063 ft | 544 kts | 106° |
| 2026-05-05 16:27 | 27.66700 | -85.59435 | 39067 ft | 544 kts | 106° |
| 2026-05-05 16:27 | 27.64285 | -85.51356 | 39069 ft | 544 kts | 106° |
| 2026-05-05 16:28 | 27.61865 | -85.43276 | 39069 ft | 544 kts | 106° |
| 2026-05-05 16:28 | 27.59449 | -85.35205 | 39067 ft | 543 kts | 104° |
| 2026-05-05 16:29 | 27.57814 | -85.26952 | 39077 ft | 538 kts | 96° |
| 2026-05-05 16:29 | 27.56482 | -85.18641 | 39069 ft | 539 kts | 97° |
| 2026-05-05 16:30 | 27.55039 | -85.10355 | 39069 ft | 539 kts | 97° |
| 2026-05-05 16:30 | 27.53579 | -85.02058 | 39071 ft | 539 kts | 97° |
| 2026-05-05 16:31 | 27.52125 | -84.93776 | 39071 ft | 539 kts | 97° |
| 2026-05-05 16:31 | 27.50669 | -84.85492 | 39071 ft | 539 kts | 97° |
| 2026-05-05 16:32 | 27.49207 | -84.77214 | 39070 ft | 539 kts | 97° |
| 2026-05-05 16:32 | 27.47726 | -84.68946 | 39074 ft | 539 kts | 97° |
| 2026-05-05 16:33 | 27.46234 | -84.60681 | 39071 ft | 538 kts | 97° |
| 2026-05-05 16:33 | 27.44742 | -84.52425 | 39072 ft | 538 kts | 97° |
| 2026-05-05 16:34 | 27.43251 | -84.44185 | 39074 ft | 537 kts | 97° |
| 2026-05-05 16:34 | 27.42006 | -84.37333 | 39070 ft | 537 kts | 97° |
| 2026-05-05 16:35 | 27.40509 | -84.29095 | 39072 ft | 537 kts | 97° |
| 2026-05-05 16:35 | 27.39010 | -84.20860 | 39074 ft | 537 kts | 97° |
| 2026-05-05 16:36 | 27.37509 | -84.12636 | 39073 ft | 537 kts | 97° |
| 2026-05-05 16:36 | 27.36003 | -84.04414 | 39075 ft | 537 kts | 97° |
| 2026-05-05 16:37 | 27.34488 | -83.96178 | 39074 ft | 537 kts | 97° |
| 2026-05-05 16:37 | 27.32972 | -83.87958 | 39073 ft | 537 kts | 97° |
| 2026-05-05 16:38 | 27.31448 | -83.79731 | 39075 ft | 537 kts | 97° |
| 2026-05-05 16:38 | 27.29922 | -83.71513 | 39068 ft | 537 kts | 97° |
| 2026-05-05 16:39 | 27.28390 | -83.63299 | 39079 ft | 537 kts | 97° |
| 2026-05-05 16:39 | 27.26850 | -83.55068 | 39077 ft | 537 kts | 97° |
| 2026-05-05 16:40 | 27.25308 | -83.46851 | 39074 ft | 537 kts | 97° |
| 2026-05-05 16:40 | 27.23760 | -83.38633 | 39079 ft | 537 kts | 97° |
| 2026-05-05 16:41 | 27.22209 | -83.30425 | 39065 ft | 537 kts | 97° |
| 2026-05-05 16:41 | 27.20655 | -83.22227 | 39069 ft | 537 kts | 97° |
| 2026-05-05 16:42 | 27.19097 | -83.14029 | 39081 ft | 536 kts | 97° |
| 2026-05-05 16:42 | 27.17537 | -83.05839 | 39075 ft | 536 kts | 97° |
| 2026-05-05 16:43 | 27.15992 | -82.97652 | 39078 ft | 536 kts | 97° |
| 2026-05-05 16:43 | 27.14456 | -82.89518 | 39076 ft | 536 kts | 97° |
| 2026-05-05 16:44 | 27.12262 | -82.81510 | 39056 ft | 545 kts | 117° |
| 2026-05-05 16:44 | 27.08240 | -82.74287 | 39061 ft | 547 kts | 121° |
| 2026-05-05 16:45 | 27.04119 | -82.67114 | 39063 ft | 547 kts | 120° |
| 2026-05-05 16:45 | 27.00098 | -82.59869 | 39062 ft | 547 kts | 119° |
| 2026-05-05 16:46 | 26.96114 | -82.52601 | 39070 ft | 547 kts | 119° |
| 2026-05-05 16:46 | 26.92098 | -82.45365 | 39051 ft | 541 kts | 123° |
| 2026-05-05 16:47 | 26.89691 | -82.42197 | 39041 ft | 529 kts | 139° |
| 2026-05-05 16:47 | 26.86925 | -82.39516 | 39084 ft | 525 kts | 141° |
| 2026-05-05 16:47 | 26.84105 | -82.36910 | 38868 ft | 528 kts | 142° |
| 2026-05-05 16:47 | 26.81253 | -82.34295 | 38225 ft | 530 kts | 141° |
| 2026-05-05 16:48 | 26.78420 | -82.31666 | 37624 ft | 528 kts | 141° |
| 2026-05-05 16:48 | 26.75609 | -82.29019 | 36981 ft | 527 kts | 140° |
| 2026-05-05 16:48 | 26.72819 | -82.26360 | 36338 ft | 527 kts | 140° |
| 2026-05-05 16:48 | 26.70039 | -82.23695 | 35669 ft | 527 kts | 140° |
| 2026-05-05 16:49 | 26.67254 | -82.21023 | 34935 ft | 529 kts | 140° |
| 2026-05-05 16:49 | 26.64454 | -82.18339 | 34162 ft | 531 kts | 140° |
| 2026-05-05 16:49 | 26.61635 | -82.15644 | 33267 ft | 534 kts | 140° |
| 2026-05-05 16:49 | 26.58809 | -82.12945 | 32473 ft | 534 kts | 140° |
| 2026-05-05 16:50 | 26.56006 | -82.10272 | 31906 ft | 528 kts | 140° |
| 2026-05-05 16:50 | 26.53228 | -82.07624 | 31318 ft | 522 kts | 141° |
| 2026-05-05 16:50 | 26.50513 | -82.04978 | 30997 ft | 511 kts | 139° |
| 2026-05-05 16:50 | 26.47899 | -82.02351 | 30605 ft | 503 kts | 139° |
| 2026-05-05 16:51 | 26.45323 | -81.99729 | 30047 ft | 499 kts | 139° |
| 2026-05-05 16:51 | 26.42774 | -81.97133 | 29483 ft | 493 kts | 139° |
| 2026-05-05 16:51 | 26.40245 | -81.94568 | 28817 ft | 489 kts | 139° |
| 2026-05-05 16:51 | 26.37730 | -81.92029 | 28197 ft | 485 kts | 140° |
| 2026-05-05 16:52 | 26.35234 | -81.89519 | 27595 ft | 481 kts | 140° |
| 2026-05-05 16:52 | 26.32754 | -81.87030 | 26989 ft | 478 kts | 140° |
| 2026-05-05 16:52 | 26.30295 | -81.84563 | 26404 ft | 474 kts | 140° |
| 2026-05-05 16:52 | 26.27849 | -81.82111 | 25804 ft | 471 kts | 140° |
| 2026-05-05 16:53 | 26.25423 | -81.79677 | 25194 ft | 468 kts | 140° |
| 2026-05-05 16:53 | 26.23253 | -81.76993 | 24592 ft | 468 kts | 123° |
| 2026-05-05 16:53 | 26.21735 | -81.73835 | 24178 ft | 459 kts | 116° |
| 2026-05-05 16:53 | 26.20368 | -81.70621 | 23563 ft | 458 kts | 115° |
| 2026-05-05 16:54 | 26.19037 | -81.67417 | 22880 ft | 455 kts | 115° |
| 2026-05-05 16:54 | 26.17708 | -81.64240 | 22268 ft | 451 kts | 115° |
| 2026-05-05 16:54 | 26.16373 | -81.61101 | 21668 ft | 446 kts | 115° |
| 2026-05-05 16:54 | 26.15037 | -81.58003 | 21060 ft | 443 kts | 115° |
| 2026-05-05 16:55 | 26.13701 | -81.54931 | 20441 ft | 439 kts | 116° |
| 2026-05-05 16:55 | 26.12369 | -81.51883 | 19848 ft | 436 kts | 115° |
| 2026-05-05 16:55 | 26.11046 | -81.48855 | 19249 ft | 433 kts | 115° |
| 2026-05-05 16:55 | 26.09733 | -81.45850 | 18653 ft | 430 kts | 115° |
| 2026-05-05 16:56 | 26.08429 | -81.42867 | 18017 ft | 428 kts | 115° |
| 2026-05-05 16:56 | 26.07136 | -81.39910 | 17375 ft | 423 kts | 115° |
| 2026-05-05 16:56 | 26.05858 | -81.36982 | 16850 ft | 417 kts | 116° |
| 2026-05-05 16:56 | 26.04602 | -81.34099 | 16286 ft | 412 kts | 116° |
| 2026-05-05 16:57 | 26.03361 | -81.31249 | 15684 ft | 408 kts | 116° |
| 2026-05-05 16:57 | 26.02128 | -81.28418 | 15109 ft | 404 kts | 116° |
| 2026-05-05 16:57 | 26.00909 | -81.25623 | 14529 ft | 400 kts | 117° |
| 2026-05-05 16:57 | 25.99700 | -81.22852 | 13964 ft | 396 kts | 117° |
| 2026-05-05 16:58 | 25.98502 | -81.20109 | 13341 ft | 393 kts | 117° |
| 2026-05-05 16:58 | 25.97314 | -81.17392 | 12761 ft | 388 kts | 117° |
| 2026-05-05 16:58 | 25.96144 | -81.14717 | 12190 ft | 382 kts | 117° |
| 2026-05-05 16:58 | 25.95005 | -81.12116 | 11638 ft | 377 kts | 117° |
| 2026-05-05 16:59 | 25.93852 | -81.09481 | 11104 ft | 372 kts | 117° |
| 2026-05-05 16:59 | 25.92726 | -81.06912 | 10571 ft | 367 kts | 117° |
| 2026-05-05 16:59 | 25.91641 | -81.04437 | 10351 ft | 353 kts | 117° |
| 2026-05-05 16:59 | 25.90619 | -81.02012 | 10169 ft | 340 kts | 114° |
| 2026-05-05 17:00 | 25.89719 | -80.99648 | 10023 ft | 326 kts | 114° |
| 2026-05-05 17:00 | 25.88866 | -80.97361 | 9906 ft | 313 kts | 113° |
| 2026-05-05 17:00 | 25.88039 | -80.95163 | 9850 ft | 298 kts | 114° |
| 2026-05-05 17:00 | 25.87246 | -80.93082 | 9557 ft | 294 kts | 114° |
| 2026-05-05 17:01 | 25.86450 | -80.91006 | 9224 ft | 291 kts | 114° |
| 2026-05-05 17:01 | 25.85658 | -80.88944 | 8863 ft | 290 kts | 114° |
| 2026-05-05 17:01 | 25.84869 | -80.86893 | 8509 ft | 288 kts | 114° |
| 2026-05-05 17:01 | 25.84083 | -80.84850 | 8174 ft | 287 kts | 114° |
| 2026-05-05 17:02 | 25.83303 | -80.82824 | 7842 ft | 285 kts | 114° |
| 2026-05-05 17:02 | 25.82527 | -80.80806 | 7525 ft | 283 kts | 114° |
| 2026-05-05 17:02 | 25.81755 | -80.78803 | 7211 ft | 282 kts | 114° |
| 2026-05-05 17:02 | 25.80987 | -80.76810 | 6920 ft | 279 kts | 114° |
| 2026-05-05 17:03 | 25.80226 | -80.74834 | 6607 ft | 278 kts | 114° |
| 2026-05-05 17:03 | 25.79466 | -80.72865 | 6278 ft | 277 kts | 114° |
| 2026-05-05 17:03 | 25.78705 | -80.70893 | 5905 ft | 278 kts | 114° |
| 2026-05-05 17:03 | 25.77949 | -80.68935 | 5602 ft | 275 kts | 114° |
| 2026-05-05 17:04 | 25.77296 | -80.67185 | 5342 ft | 272 kts | 108° |
| 2026-05-05 17:04 | 25.77125 | -80.65129 | 5068 ft | 267 kts | 84° |
| 2026-05-05 17:04 | 25.77289 | -80.63089 | 4805 ft | 265 kts | 85° |
| 2026-05-05 17:04 | 25.77398 | -80.61046 | 4528 ft | 264 kts | 87° |
| 2026-05-05 17:05 | 25.77482 | -80.59019 | 4241 ft | 263 kts | 87° |
| 2026-05-05 17:05 | 25.77561 | -80.57000 | 4051 ft | 261 kts | 87° |
| 2026-05-05 17:05 | 25.77642 | -80.54985 | 4015 ft | 260 kts | 86° |
| 2026-05-05 17:05 | 25.77722 | -80.53016 | 3861 ft | 254 kts | 86° |
| 2026-05-05 17:06 | 25.77801 | -80.51076 | 3537 ft | 250 kts | 86° |
| 2026-05-05 17:06 | 25.77880 | -80.49160 | 3210 ft | 246 kts | 86° |
| 2026-05-05 17:06 | 25.77955 | -80.47308 | 2879 ft | 234 kts | 86° |
| 2026-05-05 17:06 | 25.78027 | -80.45552 | 2559 ft | 220 kts | 86° |
| 2026-05-05 17:07 | 25.78094 | -80.43916 | 2274 ft | 205 kts | 86° |
| 2026-05-05 17:07 | 25.78158 | -80.42413 | 2027 ft | 190 kts | 86° |
| 2026-05-05 17:07 | 25.78217 | -80.40987 | 1802 ft | 175 kts | 85° |
| 2026-05-05 17:07 | 25.78271 | -80.39687 | 1578 ft | 164 kts | 85° |
| 2026-05-05 17:08 | 25.78321 | -80.38477 | 1373 ft | 153 kts | 85° |
| 2026-05-05 17:08 | 25.78369 | -80.37326 | 1167 ft | 146 kts | 85° |
| 2026-05-05 17:08 | 25.78417 | -80.36193 | 987 ft | 148 kts | 86° |
| 2026-05-05 17:08 | 25.78459 | -80.35056 | 807 ft | 143 kts | 86° |
| 2026-05-05 17:09 | 25.78508 | -80.33975 | 470 ft | 138 kts | 88° |
| 2026-05-05 17:09 | 25.78548 | -80.32886 | 318 ft | 143 kts | 88° |
| 2026-05-05 17:09 | 25.78595 | -80.31791 | 122 ft | 138 kts | 88° |
| 2026-05-05 17:09 | 25.78640 | -80.30777 | 15 ft | 121 kts | 89° |
| 2026-05-05 17:10 | 25.78672 | -80.29984 | 13 ft | 87 kts | 87° |
| 2026-05-05 17:10 | 25.78697 | -80.29462 | 14 ft | 34 kts | 86° |
| 2026-05-05 17:10 | 25.78712 | -80.29315 | 16 ft | 16 kts | 78° |
| 2026-05-05 17:10 | 25.78742 | -80.29224 | 16 ft | 12 kts | 63° |
| 2026-05-05 17:11 | 25.78785 | -80.29179 | 14 ft | 8 kts | 25° |
| 2026-05-05 17:11 | 25.78796 | -80.29174 | 15 ft | 0 kts | 22° |
| 2026-05-05 17:11 | 25.78797 | -80.29174 | 15 ft | 1 kts | 21° |
| 2026-05-05 17:12 | 25.78827 | -80.29165 | 14 ft | 7 kts | 13° |
| 2026-05-05 17:12 | 25.78873 | -80.29152 | 14 ft | 6 kts | 19° |
| 2026-05-05 17:12 | 25.78900 | -80.29117 | 16 ft | 6 kts | 69° |
| 2026-05-05 17:12 | 25.78906 | -80.29070 | 14 ft | 6 kts | 82° |
| 2026-05-05 17:13 | 25.78913 | -80.29023 | 14 ft | 6 kts | 81° |
| 2026-05-05 17:13 | 25.78920 | -80.28978 | 14 ft | 6 kts | 77° |
| 2026-05-05 17:13 | 25.78931 | -80.28934 | 15 ft | 6 kts | 74° |
| 2026-05-05 17:13 | 25.78942 | -80.28891 | 15 ft | 6 kts | 76° |
| 2026-05-05 17:14 | 25.78947 | -80.28848 | 14 ft | 6 kts | 86° |
| 2026-05-05 17:14 | 25.78949 | -80.28805 | 14 ft | 6 kts | 87° |
| 2026-05-05 17:14 | 25.78951 | -80.28763 | 14 ft | 5 kts | 87° |
| 2026-05-05 17:14 | 25.78953 | -80.28722 | 14 ft | 5 kts | 87° |
| 2026-05-05 17:15 | 25.78954 | -80.28681 | 14 ft | 5 kts | 87° |
| 2026-05-05 17:15 | 25.78956 | -80.28634 | 14 ft | 6 kts | 87° |
| 2026-05-05 17:15 | 25.78959 | -80.28585 | 14 ft | 6 kts | 84° |
| 2026-05-05 17:15 | 25.78980 | -80.28545 | 15 ft | 6 kts | 42° |
| 2026-05-05 17:16 | 25.79017 | -80.28515 | 14 ft | 8 kts | 36° |
| 2026-05-05 17:16 | 25.79082 | -80.28468 | 14 ft | 10 kts | 31° |
| 2026-05-05 17:16 | 25.79125 | -80.28440 | 14 ft | 7 kts | 31° |
| 2026-05-05 17:16 | 25.79167 | -80.28414 | 14 ft | 7 kts | 24° |
| 2026-05-05 17:17 | 25.79210 | -80.28397 | 14 ft | 7 kts | 21° |
| 2026-05-05 17:17 | 25.79237 | -80.28377 | 14 ft | 3 kts | 39° |
| 2026-05-05 17:17 | 25.79253 | -80.28361 | 15 ft | 3 kts | 41° |
| 2026-05-05 17:17 | 25.79269 | -80.28346 | 14 ft | 3 kts | 41° |
| 2026-05-05 17:18 | 25.79272 | -80.28343 | 14 ft | 0 kts | 43° |
| 2026-05-05 17:19 | 25.79272 | -80.28342 | 14 ft | 1 kts | 43° |
| 2026-05-05 17:19 | 25.79315 | -80.28299 | 15 ft | 16 kts | 43° |
| 2026-05-05 17:19 | 25.79435 | -80.28175 | 14 ft | 33 kts | 43° |
| 2026-05-05 17:19 | 25.79509 | -80.28099 | 14 ft | 0 kts | 43° |
| 2026-05-05 17:20 | 25.79510 | -80.28099 | 14 ft | 0 kts | 43° |
| 2026-05-05 17:20 | 25.79337 | -80.28075 | 16 ft | 0 kts | 167° |